Time;durP1;ratioP1;P1;durP2;ratioP2;P2;SDS_P1;SDS_P2;PMS_P1;PMS_P2;Temp;Humidity;BMP_temperature;BMP_pressure;BME280_temperature;BME280_humidity;BME280_pressure;Samples;Min_cycle;Max_cycle;Signal;HPM_P1;HPM_P2
2021/12/11 00:02:13;;;;;;;45.40;18.93;;;-0.30;99.90;;;;;;5053995;28;20300;-76
2021/12/11 00:04:45;;;;;;;41.20;20.17;;;-0.40;99.90;;;;;;5074206;28;20275;-75
2021/12/11 00:07:16;;;;;;;34.77;17.83;;;-0.40;99.90;;;;;;5079028;28;20208;-75
2021/12/11 00:09:51;;;;;;;30.73;15.80;;;-0.40;99.90;;;;;;5081694;28;20244;-75
2021/12/11 00:12:21;;;;;;;32.30;15.70;;;-0.30;99.90;;;;;;5072702;28;20212;-76
2021/12/11 00:14:56;;;;;;;36.90;16.20;;;-0.40;99.90;;;;;;5055059;28;20270;-76
2021/12/11 00:17:33;;;;;;;36.43;17.47;;;-0.40;99.90;;;;;;5072261;28;20326;-75
2021/12/11 00:20:01;;;;;;;38.77;15.37;;;-0.40;99.90;;;;;;5056199;28;20205;-75
2021/12/11 00:22:30;;;;;;;32.43;16.07;;;-0.40;99.90;;;;;;5073772;28;20888;-75
2021/12/11 00:25:09;;;;;;;31.07;14.97;;;-0.40;99.90;;;;;;5071186;28;20945;-74
2021/12/11 00:27:38;;;;;;;28.20;14.10;;;-0.40;99.90;;;;;;5071394;28;20629;-74
2021/12/11 00:30:18;;;;;;;32.13;14.97;;;-0.50;99.90;;;;;;5074647;28;20202;-75
2021/12/11 00:32:45;;;;;;;27.80;14.97;;;-0.50;99.90;;;;;;5067313;28;20223;-74
2021/12/11 00:35:20;;;;;;;34.60;15.23;;;-0.50;99.90;;;;;;5071456;28;20234;-75
2021/12/11 00:37:48;;;;;;;37.73;15.13;;;-0.50;99.90;;;;;;5071350;28;20316;-74
2021/12/11 00:40:23;;;;;;;29.43;14.77;;;-0.60;99.90;;;;;;5071810;28;20207;-75
2021/12/11 00:42:53;;;;;;;29.57;16.40;;;-0.60;99.90;;;;;;5062957;28;20701;-74
2021/12/11 00:45:24;;;;;;;35.63;16.10;;;-0.70;99.90;;;;;;5064848;28;20320;-75
2021/12/11 00:47:55;;;;;;;28.20;15.87;;;-0.60;99.90;;;;;;5070354;28;20317;-75
2021/12/11 00:50:26;;;;;;;30.37;14.60;;;-0.70;99.90;;;;;;5069898;28;20197;-75
2021/12/11 00:52:57;;;;;;;28.53;15.00;;;-0.60;99.90;;;;;;5070688;28;20313;-75
2021/12/11 00:55:34;;;;;;;33.40;13.33;;;-0.70;99.90;;;;;;5068794;28;20229;-75
2021/12/11 00:58:04;;;;;;;33.53;14.93;;;-0.70;99.90;;;;;;5047150;28;20264;-75
2021/12/11 01:00:38;;;;;;;30.57;15.50;;;-0.70;99.90;;;;;;5070042;28;20296;-75
2021/12/11 01:03:06;;;;;;;29.30;15.20;;;-0.70;99.90;;;;;;5071821;28;20838;-74
2021/12/11 01:05:38;;;;;;;34.83;15.53;;;-0.70;99.90;;;;;;5071805;28;20781;-75
2021/12/11 01:08:27;;;;;;;33.33;13.80;;;-0.70;99.90;;;;;;5070861;28;20635;-74
2021/12/11 01:11:07;;;;;;;30.50;15.07;;;-0.70;99.90;;;;;;5071361;28;20296;-75
2021/12/11 01:13:45;;;;;;;30.13;15.10;;;-0.70;99.90;;;;;;5069888;28;20217;-75
2021/12/11 01:16:14;;;;;;;31.87;15.57;;;-0.70;99.90;;;;;;5067386;28;20766;-76
2021/12/11 01:18:47;;;;;;;31.27;14.63;;;-0.70;99.90;;;;;;5068263;28;20240;-75
2021/12/11 01:24:28;;;;;;;36.13;16.17;;;-0.70;99.90;;;;;;5067142;28;20197;-75
2021/12/11 01:26:59;;;;;;;31.97;14.57;;;-0.70;99.90;;;;;;5069488;28;20224;-74
2021/12/11 01:29:30;;;;;;;34.93;16.33;;;-0.70;99.90;;;;;;5067486;28;20213;-75
2021/12/11 01:31:58;;;;;;;35.90;15.53;;;-0.70;99.90;;;;;;5064685;28;20217;-74
2021/12/11 01:34:27;;;;;;;37.17;15.93;;;-0.70;99.90;;;;;;5067794;28;20213;-75
2021/12/11 01:36:55;;;;;;;30.00;15.40;;;-0.60;99.90;;;;;;5069118;28;20293;-75
2021/12/11 01:39:25;;;;;;;33.87;15.67;;;-0.60;99.90;;;;;;5069268;28;20232;-75
2021/12/11 01:41:54;;;;;;;32.67;17.33;;;-0.60;99.90;;;;;;5061168;28;20217;-75
2021/12/11 01:44:32;;;;;;;35.33;16.80;;;-0.60;99.90;;;;;;5055270;28;20198;-75
2021/12/11 01:47:12;;;;;;;32.80;16.90;;;-0.60;99.90;;;;;;5065630;28;20215;-74
2021/12/11 01:49:42;;;;;;;36.97;16.33;;;-0.60;99.90;;;;;;5069257;28;20211;-75
2021/12/11 01:52:40;;;;;;;33.27;15.33;;;-0.70;99.90;;;;;;5069072;28;20231;-74
2021/12/11 01:55:19;;;;;;;30.60;16.17;;;-0.70;99.90;;;;;;5063485;28;20222;-75
2021/12/11 01:57:52;;;;;;;32.07;15.77;;;-0.70;99.90;;;;;;5084100;28;20215;-75
2021/12/11 02:00:32;;;;;;;26.57;15.37;;;-0.70;99.90;;;;;;5080269;28;20204;-75
2021/12/11 02:03:06;;;;;;;30.30;14.87;;;-0.70;99.90;;;;;;5089160;28;20236;-74
2021/12/11 02:05:36;;;;;;;29.13;14.50;;;-0.70;99.90;;;;;;5088334;28;20351;-74
2021/12/11 02:08:07;;;;;;;30.00;16.13;;;-0.70;99.90;;;;;;5088969;28;20509;-75
2021/12/11 02:10:41;;;;;;;25.50;13.83;;;-0.80;99.90;;;;;;5089379;28;20188;-74
2021/12/11 02:13:13;;;;;;;33.73;15.13;;;-0.80;99.90;;;;;;5082636;28;20215;-75
2021/12/11 02:15:48;;;;;;;31.33;14.23;;;-0.80;99.90;;;;;;5088754;28;20375;-74
2021/12/11 02:18:18;;;;;;;29.27;15.10;;;-0.80;99.90;;;;;;5089239;28;20227;-74
2021/12/11 02:20:55;;;;;;;30.87;14.90;;;-0.80;99.90;;;;;;5089002;28;20201;-75
2021/12/11 02:23:24;;;;;;;31.77;14.83;;;-0.90;99.90;;;;;;5083490;28;20320;-75
2021/12/11 02:25:54;;;;;;;32.37;15.80;;;-0.90;99.90;;;;;;5072558;28;20208;-75
2021/12/11 02:28:30;;;;;;;27.50;13.70;;;-0.90;99.90;;;;;;5081815;28;20284;-74
2021/12/11 02:31:05;;;;;;;26.50;14.13;;;-0.90;99.90;;;;;;5057775;28;20199;-74
2021/12/11 02:33:53;;;;;;;32.90;15.73;;;-1.00;99.90;;;;;;5082661;28;20231;-74
2021/12/11 02:36:28;;;;;;;28.80;15.57;;;-1.00;99.90;;;;;;5088509;28;20236;-74
2021/12/11 02:39:39;;;;;;;28.87;14.93;;;-1.00;99.90;;;;;;5084467;28;20318;-74
2021/12/11 02:42:14;;;;;;;33.73;15.00;;;-1.00;99.90;;;;;;5051932;28;20228;-75
2021/12/11 02:44:59;;;;;;;28.50;14.43;;;-1.00;99.90;;;;;;5062444;28;20239;-75
2021/12/11 02:47:34;;;;;;;35.80;14.83;;;-1.10;99.90;;;;;;5088248;28;20583;-75
2021/12/11 02:50:30;;;;;;;37.73;16.90;;;-1.10;99.90;;;;;;5088357;28;20720;-75
2021/12/11 02:53:05;;;;;;;32.07;15.57;;;-1.10;99.90;;;;;;5053498;28;20693;-76
2021/12/11 02:55:38;;;;;;;31.73;16.57;;;-1.10;99.90;;;;;;5080569;28;20233;-75
2021/12/11 02:58:20;;;;;;;35.93;16.93;;;-1.10;99.90;;;;;;5066237;28;20748;-76
2021/12/11 03:00:55;;;;;;;33.33;16.07;;;-1.10;99.90;;;;;;5072087;28;20227;-75
2021/12/11 03:03:29;;;;;;;34.97;18.13;;;-1.10;99.90;;;;;;5065695;28;20696;-75
2021/12/11 03:06:04;;;;;;;31.37;16.63;;;-1.10;99.90;;;;;;5045251;28;20202;-75
2021/12/11 03:08:32;;;;;;;33.80;18.37;;;-1.10;99.90;;;;;;5063314;28;20235;-75
2021/12/11 03:11:10;;;;;;;41.83;19.77;;;-1.10;99.90;;;;;;5071713;28;20205;-74
2021/12/11 03:13:39;;;;;;;41.60;20.40;;;-1.20;99.90;;;;;;5065307;28;20291;-76
2021/12/11 03:16:07;;;;;;;39.73;21.43;;;-1.20;99.90;;;;;;5065454;28;20228;-74
2021/12/11 03:18:35;;;;;;;47.30;21.13;;;-1.20;99.90;;;;;;5065884;28;20326;-75
2021/12/11 03:21:06;;;;;;;39.40;20.17;;;-1.20;99.90;;;;;;5065753;28;20197;-75
2021/12/11 03:23:32;;;;;;;42.83;20.83;;;-1.20;99.90;;;;;;5071999;28;20295;-75
2021/12/11 03:26:01;;;;;;;41.13;21.30;;;-1.20;99.90;;;;;;5054411;28;20204;-76
2021/12/11 03:28:28;;;;;;;36.20;19.83;;;-1.20;99.90;;;;;;5063161;28;20212;-75
2021/12/11 03:30:59;;;;;;;41.27;20.97;;;-1.20;99.90;;;;;;5070997;28;20270;-75
2021/12/11 03:33:31;;;;;;;32.67;18.40;;;-1.30;99.90;;;;;;5071470;28;20343;-75
2021/12/11 03:36:02;;;;;;;41.17;20.67;;;-1.20;99.90;;;;;;5052216;28;20201;-75
2021/12/11 03:38:33;;;;;;;38.27;18.60;;;-1.30;99.90;;;;;;5071957;28;20588;-74
2021/12/11 03:41:00;;;;;;;40.13;19.87;;;-1.30;99.90;;;;;;5071018;28;20197;-75
2021/12/11 03:43:29;;;;;;;37.97;19.00;;;-1.30;99.90;;;;;;5070929;28;20216;-73
2021/12/11 03:45:59;;;;;;;40.50;18.17;;;-1.30;99.90;;;;;;5071158;28;20208;-76
2021/12/11 03:48:34;;;;;;;42.27;18.40;;;-1.30;99.90;;;;;;5070381;28;20302;-74
2021/12/11 03:51:03;;;;;;;38.37;17.97;;;-1.40;99.90;;;;;;5070803;28;20286;-75
2021/12/11 03:53:31;;;;;;;35.80;18.40;;;-1.40;99.90;;;;;;5067677;28;20293;-75
2021/12/11 03:56:03;;;;;;;36.93;18.40;;;-1.40;99.90;;;;;;5055744;28;20327;-75
2021/12/11 03:58:31;;;;;;;30.67;17.50;;;-1.40;99.90;;;;;;5071457;28;20291;-75
2021/12/11 04:01:09;;;;;;;38.50;18.80;;;-1.40;99.90;;;;;;5053645;28;20627;-74
2021/12/11 04:03:39;;;;;;;37.87;18.13;;;-1.50;99.90;;;;;;5053154;28;20291;-75
2021/12/11 04:06:10;;;;;;;32.40;17.00;;;-1.50;99.90;;;;;;5065726;28;20225;-76
2021/12/11 04:08:41;;;;;;;35.43;18.07;;;-1.50;99.90;;;;;;5070768;28;20212;-75
2021/12/11 04:11:16;;;;;;;35.67;16.77;;;-1.50;99.90;;;;;;5070306;28;20212;-75
2021/12/11 04:13:44;;;;;;;40.23;18.73;;;-1.50;99.90;;;;;;5090941;28;20250;-74
2021/12/11 04:16:14;;;;;;;38.07;19.20;;;-1.50;99.90;;;;;;5092186;28;20607;-74
2021/12/11 04:18:41;;;;;;;33.40;17.20;;;-1.60;99.90;;;;;;5086481;28;20686;-74
2021/12/11 04:21:08;;;;;;;41.30;18.70;;;-1.60;99.90;;;;;;5089681;28;20215;-75
2021/12/11 04:23:35;;;;;;;37.53;19.17;;;-1.60;99.90;;;;;;5091595;28;20659;-75
2021/12/11 04:26:06;;;;;;;38.03;19.40;;;-1.60;99.90;;;;;;5090801;28;20208;-75
2021/12/11 04:28:36;;;;;;;40.33;17.53;;;-1.60;99.90;;;;;;5084709;28;20208;-75
2021/12/11 04:31:11;;;;;;;39.10;17.03;;;-1.60;99.90;;;;;;5085059;28;20196;-75
2021/12/11 04:33:44;;;;;;;31.13;17.00;;;-1.60;99.90;;;;;;5089124;28;20765;-74
2021/12/11 04:36:15;;;;;;;36.37;18.47;;;-1.60;99.90;;;;;;5091530;28;20208;-74
2021/12/11 04:38:44;;;;;;;37.63;17.53;;;-1.60;99.90;;;;;;5090317;28;20307;-75
2021/12/11 04:41:17;;;;;;;37.70;17.13;;;-1.60;99.90;;;;;;5061682;28;20200;-75
2021/12/11 04:43:48;;;;;;;37.00;16.50;;;-1.60;99.90;;;;;;5091622;28;20200;-75
2021/12/11 04:46:15;;;;;;;32.97;17.00;;;-1.50;99.90;;;;;;5091437;28;20294;-75
2021/12/11 04:49:04;;;;;;;36.23;16.93;;;-1.50;99.90;;;;;;5087386;28;20213;-73
2021/12/11 04:51:48;;;;;;;36.10;16.77;;;-1.40;99.90;;;;;;5091138;28;20235;-75
2021/12/11 04:57:37;;;;;;;33.97;17.33;;;-1.30;99.90;;;;;;5107364;28;20204;-76
2021/12/11 05:00:07;;;;;;;35.63;17.00;;;-1.30;99.90;;;;;;5097056;28;20229;-74
2021/12/11 05:03:28;;;;;;;39.60;18.50;;;-1.30;99.90;;;;;;5110428;28;20255;-74
2021/12/11 05:11:11;;;;;;;33.97;16.83;;;-1.40;99.90;;;;;;5107150;28;20870;-75
2021/12/11 05:13:39;;;;;;;36.67;17.43;;;-1.40;99.90;;;;;;5101368;28;20207;-75
2021/12/11 05:16:08;;;;;;;38.10;18.50;;;-1.50;99.90;;;;;;5096189;28;20299;-74
2021/12/11 05:18:38;;;;;;;37.43;18.30;;;-1.50;99.90;;;;;;5091395;28;20239;-74
2021/12/11 05:21:16;;;;;;;37.43;18.00;;;-1.50;99.90;;;;;;5090651;28;20204;-75
2021/12/11 05:23:47;;;;;;;33.73;17.03;;;-1.50;99.90;;;;;;5071513;28;20215;-74
2021/12/11 05:26:14;;;;;;;36.13;17.07;;;-1.50;99.90;;;;;;5078492;28;20204;-75
2021/12/11 05:28:41;;;;;;;33.50;17.87;;;-1.40;99.90;;;;;;5072690;28;20208;-74
2021/12/11 05:31:09;;;;;;;33.40;17.53;;;-1.40;99.90;;;;;;5089794;28;20644;-75
2021/12/11 05:33:38;;;;;;;36.00;16.93;;;-1.40;99.90;;;;;;5089523;28;20220;-75
2021/12/11 05:36:09;;;;;;;38.27;17.90;;;-1.40;99.90;;;;;;5090219;28;20295;-75
2021/12/11 05:38:39;;;;;;;38.07;17.63;;;-1.40;99.90;;;;;;5082852;28;20274;-75
2021/12/11 05:41:09;;;;;;;36.80;18.47;;;-1.40;99.90;;;;;;5088078;28;20215;-74
2021/12/11 05:43:36;;;;;;;38.77;18.87;;;-1.40;99.90;;;;;;5071617;28;20659;-75
2021/12/11 05:46:08;;;;;;;39.17;18.70;;;-1.40;99.90;;;;;;5088469;28;20269;-75
2021/12/11 05:48:36;;;;;;;41.80;17.73;;;-1.30;99.90;;;;;;5088914;28;20684;-75
2021/12/11 05:51:06;;;;;;;45.40;19.70;;;-1.30;99.90;;;;;;5068219;28;20284;-75
2021/12/11 05:53:33;;;;;;;46.90;20.77;;;-1.30;99.90;;;;;;5089277;28;20232;-74
2021/12/11 05:56:07;;;;;;;43.77;20.50;;;-1.30;99.90;;;;;;5077422;28;20771;-75
2021/12/11 05:58:46;;;;;;;45.17;19.07;;;-1.20;99.90;;;;;;5069005;28;20351;-75
2021/12/11 06:01:34;;;;;;;47.97;21.37;;;-1.20;99.90;;;;;;5065358;28;20204;-75
2021/12/11 06:04:07;;;;;;;47.37;19.33;;;-1.10;99.90;;;;;;5051034;28;20302;-74
2021/12/11 06:06:35;;;;;;;44.17;20.47;;;-1.10;99.90;;;;;;5062048;28;20212;-75
2021/12/11 06:09:08;;;;;;;46.03;19.33;;;-1.00;99.90;;;;;;5049004;28;20198;-75
2021/12/11 06:11:36;;;;;;;45.03;18.73;;;-1.00;99.90;;;;;;5054450;28;20211;-74
2021/12/11 06:14:04;;;;;;;38.00;18.07;;;-1.00;99.90;;;;;;5068840;28;20494;-75
2021/12/11 06:16:32;;;;;;;45.80;20.43;;;-1.00;99.90;;;;;;5051151;28;20625;-75
2021/12/11 06:19:03;;;;;;;45.07;20.47;;;-1.00;99.90;;;;;;5068700;28;20272;-74
2021/12/11 06:21:32;;;;;;;36.00;18.60;;;-0.90;99.90;;;;;;5065759;28;20669;-75
2021/12/11 06:23:59;;;;;;;42.40;19.67;;;-0.90;99.90;;;;;;5051548;28;20234;-75
2021/12/11 06:26:26;;;;;;;48.63;19.73;;;-0.80;99.90;;;;;;5068336;28;20293;-75
2021/12/11 06:28:53;;;;;;;50.67;20.50;;;-0.80;99.90;;;;;;5068384;28;20314;-73
2021/12/11 06:31:20;;;;;;;49.07;19.07;;;-0.70;99.90;;;;;;5050114;28;20688;-75
2021/12/11 06:33:50;;;;;;;50.57;19.37;;;-0.70;99.90;;;;;;5067452;28;20324;-76
2021/12/11 06:36:19;;;;;;;42.43;19.63;;;-0.60;99.90;;;;;;5068466;28;20232;-75
2021/12/11 06:38:49;;;;;;;46.17;19.40;;;-0.60;99.90;;;;;;5068630;28;20685;-75
2021/12/11 06:41:19;;;;;;;40.63;19.00;;;-0.60;99.90;;;;;;5062926;28;20516;-75
2021/12/11 06:43:46;;;;;;;55.37;21.10;;;-0.50;99.90;;;;;;5049389;28;20230;-74
2021/12/11 06:46:13;;;;;;;52.73;20.33;;;-0.50;99.90;;;;;;5067762;28;20606;-77
2021/12/11 06:48:40;;;;;;;40.83;19.13;;;-0.50;99.90;;;;;;5067649;28;20252;-76
2021/12/11 06:51:07;;;;;;;46.77;20.33;;;-0.50;99.90;;;;;;5064131;28;20204;-76
2021/12/11 06:53:41;;;;;;;41.63;19.67;;;-0.50;99.90;;;;;;5068434;28;20281;-76
2021/12/11 06:56:12;;;;;;;44.37;19.60;;;-0.50;99.90;;;;;;5065757;28;20230;-77
2021/12/11 06:58:39;;;;;;;41.53;19.13;;;-0.50;99.90;;;;;;5051196;28;20228;-76
2021/12/11 07:01:07;;;;;;;46.40;20.80;;;-0.60;99.90;;;;;;5050950;28;20742;-76
2021/12/11 07:03:35;;;;;;;49.50;18.70;;;-0.60;99.90;;;;;;5068864;28;20226;-76
2021/12/11 07:06:02;;;;;;;52.37;20.70;;;-0.60;99.90;;;;;;5067984;28;20297;-77
2021/12/11 07:08:30;;;;;;;55.13;22.07;;;-0.60;99.90;;;;;;5068294;28;20202;-76
2021/12/11 07:10:59;;;;;;;53.47;21.00;;;-0.70;99.90;;;;;;5063797;28;20288;-76
2021/12/11 07:13:27;;;;;;;46.73;21.37;;;-0.70;99.90;;;;;;5062814;28;20205;-76
2021/12/11 07:15:58;;;;;;;49.60;20.83;;;-0.70;99.90;;;;;;5050498;28;20206;-77
2021/12/11 07:18:25;;;;;;;69.33;22.60;;;-0.70;99.90;;;;;;5067783;28;20212;-76
2021/12/11 07:20:52;;;;;;;60.57;24.40;;;-0.70;99.90;;;;;;5067821;28;20683;-77
2021/12/11 07:23:19;;;;;;;59.60;24.20;;;-0.70;99.90;;;;;;5066881;28;20190;-76
2021/12/11 07:25:53;;;;;;;48.57;20.77;;;-0.70;99.90;;;;;;5068319;28;20244;-75
2021/12/11 07:28:21;;;;;;;41.60;20.00;;;-0.70;99.90;;;;;;5067342;28;20595;-76
2021/12/11 07:30:50;;;;;;;52.50;21.30;;;-0.70;99.90;;;;;;5050064;28;20237;-76
2021/12/11 07:33:18;;;;;;;49.43;22.33;;;-0.70;99.90;;;;;;5067165;28;20226;-76
2021/12/11 07:35:46;;;;;;;50.33;21.30;;;-0.70;99.90;;;;;;5067512;28;20201;-76
2021/12/11 07:38:13;;;;;;;48.40;21.03;;;-0.70;99.90;;;;;;5067263;28;20202;-76
2021/12/11 07:40:45;;;;;;;42.27;19.03;;;-0.70;99.90;;;;;;5068079;28;20234;-76
2021/12/11 07:43:13;;;;;;;46.30;19.60;;;-0.70;99.90;;;;;;5066443;28;21161;-77
2021/12/11 07:45:40;;;;;;;42.13;20.73;;;-0.70;99.90;;;;;;5071571;28;20220;-76
2021/12/11 07:48:08;;;;;;;47.97;20.73;;;-0.70;99.90;;;;;;5071483;28;20231;-76
2021/12/11 07:50:35;;;;;;;38.70;18.03;;;-0.80;99.90;;;;;;5071870;28;20209;-77
2021/12/11 07:53:03;;;;;;;37.10;17.93;;;-0.80;99.90;;;;;;5066362;28;20203;-76
2021/12/11 07:55:32;;;;;;;45.30;18.80;;;-0.80;99.90;;;;;;5074175;28;20621;-76
2021/12/11 07:58:01;;;;;;;42.80;19.10;;;-0.80;99.90;;;;;;5090728;28;20778;-76
2021/12/11 08:00:28;;;;;;;46.63;19.77;;;-0.90;99.90;;;;;;5091463;28;20243;-76
2021/12/11 08:02:56;;;;;;;53.03;22.03;;;-0.90;99.90;;;;;;5073256;28;20224;-75
2021/12/11 08:05:25;;;;;;;44.40;20.50;;;-0.90;99.90;;;;;;5086482;28;20269;-76
2021/12/11 08:07:52;;;;;;;41.97;20.27;;;-0.90;99.90;;;;;;5072140;28;20193;-75
2021/12/11 08:10:21;;;;;;;44.00;21.13;;;-0.90;99.90;;;;;;5091406;28;20230;-75
2021/12/11 08:12:49;;;;;;;44.47;20.17;;;-0.90;99.90;;;;;;5084482;28;20594;-76
2021/12/11 08:15:17;;;;;;;47.07;20.90;;;-0.90;99.90;;;;;;5073001;28;20209;-76
2021/12/11 08:17:50;;;;;;;45.57;19.67;;;-0.90;99.90;;;;;;5090714;28;20223;-76
2021/12/11 08:20:17;;;;;;;43.90;20.80;;;-0.90;99.90;;;;;;5090523;28;20236;-75
2021/12/11 08:22:43;;;;;;;50.30;20.07;;;-0.90;99.90;;;;;;5091465;28;20201;-75
2021/12/11 08:25:11;;;;;;;49.10;22.20;;;-0.90;99.90;;;;;;5090545;28;20237;-76
2021/12/11 08:27:38;;;;;;;44.70;19.93;;;-0.90;99.90;;;;;;5084255;28;20301;-75
2021/12/11 08:30:07;;;;;;;47.83;20.97;;;-0.80;99.90;;;;;;5070508;28;20565;-75
2021/12/11 08:32:34;;;;;;;54.87;23.03;;;-0.80;99.90;;;;;;5090883;28;20227;-76
2021/12/11 08:35:02;;;;;;;62.90;23.27;;;-0.80;99.90;;;;;;5088396;28;20209;-77
2021/12/11 08:37:33;;;;;;;66.27;23.73;;;-0.70;99.90;;;;;;5070807;28;20205;-75
2021/12/11 08:40:00;;;;;;;52.40;21.67;;;-0.60;99.90;;;;;;5070969;28;20307;-77
2021/12/11 08:42:28;;;;;;;52.33;24.10;;;-0.70;99.90;;;;;;5089654;28;20206;-76
2021/12/11 08:45:05;;;;;;;71.67;28.23;;;-0.60;99.90;;;;;;5089216;28;20200;-76
2021/12/11 08:47:35;;;;;;;78.27;31.40;;;-0.60;99.90;;;;;;5090496;28;20264;-75
2021/12/11 08:50:04;;;;;;;70.30;30.97;;;-0.60;99.90;;;;;;5084021;28;20684;-76
2021/12/11 08:52:36;;;;;;;77.93;30.93;;;-0.60;99.90;;;;;;5087858;28;20202;-75
2021/12/11 08:55:14;;;;;;;69.13;29.07;;;-0.60;99.90;;;;;;5089383;28;20256;-77
2021/12/11 08:57:41;;;;;;;63.47;27.37;;;-0.60;99.90;;;;;;5091545;28;20204;-76
2021/12/11 09:00:18;;;;;;;59.33;25.87;;;-0.50;99.90;;;;;;5090112;28;20656;-75
2021/12/11 09:02:49;;;;;;;53.97;22.73;;;-0.50;99.90;;;;;;5081045;28;20213;-77
2021/12/11 09:05:25;;;;;;;56.77;24.23;;;-0.50;99.90;;;;;;5090292;28;20221;-75
2021/12/11 09:08:18;;;;;;;64.83;24.87;;;-0.50;99.90;;;;;;5087067;28;20676;-76
2021/12/11 09:10:59;;;;;;;61.50;25.23;;;-0.50;99.90;;;;;;5084659;28;20210;-74
2021/12/11 09:13:38;;;;;;;62.93;25.23;;;-0.50;99.90;;;;;;5087476;28;20202;-76
2021/12/11 09:16:17;;;;;;;66.20;27.10;;;-0.50;99.90;;;;;;5090191;28;20213;-76
2021/12/11 09:18:51;;;;;;;63.70;24.93;;;-0.50;99.90;;;;;;5084064;28;20217;-75
2021/12/11 09:21:26;;;;;;;65.67;25.07;;;-0.40;99.90;;;;;;5088210;28;20324;-75
2021/12/11 09:24:03;;;;;;;62.93;26.63;;;-0.40;99.90;;;;;;5088721;28;20235;-76
2021/12/11 09:26:43;;;;;;;60.53;27.13;;;-0.40;99.90;;;;;;5087285;28;20317;-76
2021/12/11 09:29:17;;;;;;;64.37;27.60;;;-0.40;99.90;;;;;;5101224;28;20700;-76
2021/12/11 09:31:52;;;;;;;86.50;31.03;;;-0.30;99.90;;;;;;5104243;28;20228;-77
2021/12/11 09:34:22;;;;;;;81.17;31.03;;;-0.30;99.90;;;;;;5101934;28;20221;-76
2021/12/11 09:36:55;;;;;;;71.40;30.77;;;-0.30;99.90;;;;;;5099239;28;20238;-77
2021/12/11 09:39:31;;;;;;;79.80;31.93;;;-0.20;99.90;;;;;;5100927;28;20263;-76
2021/12/11 09:41:58;;;;;;;79.30;29.43;;;-0.20;99.90;;;;;;5102654;28;20201;-76
2021/12/11 09:44:46;;;;;;;81.23;30.93;;;-0.10;99.90;;;;;;5097324;28;20573;-76
2021/12/11 09:47:21;;;;;;;74.43;29.70;;;-0.10;99.90;;;;;;5094568;28;20209;-76
2021/12/11 09:49:57;;;;;;;74.23;31.83;;;-0.10;99.90;;;;;;5074485;28;20310;-76
2021/12/11 09:52:25;;;;;;;80.17;31.30;;;0.00;99.90;;;;;;5088169;28;20264;-76
2021/12/11 09:55:16;;;;;;;74.87;30.47;;;0.00;99.90;;;;;;5092732;28;20214;-77
2021/12/11 09:57:49;;;;;;;92.47;33.97;;;0.10;99.90;;;;;;5086619;28;20280;-76
2021/12/11 10:00:34;;;;;;;88.03;34.47;;;0.10;99.90;;;;;;5087865;28;20230;-77
2021/12/11 10:03:02;;;;;;;83.93;31.03;;;0.20;99.90;;;;;;5070901;28;20226;-77
2021/12/11 10:05:37;;;;;;;86.07;34.17;;;0.20;99.90;;;;;;5089077;28;20237;-77
2021/12/11 10:08:27;;;;;;;93.83;34.47;;;0.30;99.90;;;;;;5090462;28;20272;-76
2021/12/11 10:11:18;;;;;;;92.33;34.37;;;0.40;99.90;;;;;;5088137;28;20743;-77
2021/12/11 10:14:02;;;;;;;87.73;34.57;;;0.40;99.90;;;;;;5077754;28;20321;-77
2021/12/11 10:16:37;;;;;;;96.93;34.73;;;0.50;99.90;;;;;;5085562;28;20260;-76
2021/12/11 10:19:06;;;;;;;88.07;33.13;;;0.60;99.90;;;;;;5071965;28;20590;-76
2021/12/11 10:21:39;;;;;;;88.47;33.63;;;0.70;99.90;;;;;;5090094;28;20561;-76
2021/12/11 10:24:11;;;;;;;90.53;36.03;;;0.80;99.90;;;;;;5076320;28;20242;-77
2021/12/11 10:26:38;;;;;;;89.53;35.37;;;0.80;99.90;;;;;;5065748;28;20207;-75
2021/12/11 10:29:10;;;;;;;95.63;36.47;;;0.90;99.90;;;;;;5072357;28;20269;-76
2021/12/11 10:31:41;;;;;;;99.80;37.37;;;1.00;99.90;;;;;;5086613;28;20532;-76
2021/12/11 10:34:12;;;;;;;111.93;38.60;;;1.20;99.90;;;;;;5089754;28;20774;-75
2021/12/11 10:36:49;;;;;;;106.97;38.67;;;1.30;99.90;;;;;;5065228;28;20678;-76
2021/12/11 10:39:18;;;;;;;90.20;37.17;;;1.40;99.90;;;;;;5089143;28;20282;-77
2021/12/11 10:41:45;;;;;;;101.93;38.90;;;1.50;99.90;;;;;;5087874;28;20254;-77
2021/12/11 10:44:18;;;;;;;101.17;38.27;;;1.60;99.90;;;;;;5089387;28;20635;-75
2021/12/11 10:46:52;;;;;;;96.23;36.40;;;1.70;99.90;;;;;;5086147;28;20200;-75
2021/12/11 10:49:20;;;;;;;96.30;37.00;;;1.90;99.90;;;;;;5088456;28;20673;-75
2021/12/11 10:51:51;;;;;;;85.73;33.97;;;1.90;99.90;;;;;;5088662;28;20220;-76
2021/12/11 10:54:19;;;;;;;73.73;34.13;;;2.10;99.90;;;;;;5071179;28;20201;-76
2021/12/11 10:56:46;;;;;;;83.40;33.43;;;2.20;99.90;;;;;;5087555;28;20348;-75
2021/12/11 10:59:23;;;;;;;74.77;32.93;;;2.30;99.90;;;;;;5088550;28;20270;-77
2021/12/11 11:02:12;;;;;;;66.87;31.30;;;2.40;99.90;;;;;;5088548;28;20228;-76
2021/12/11 11:04:43;;;;;;;73.27;30.73;;;2.50;99.90;;;;;;5079209;28;20284;-76
2021/12/11 11:07:11;;;;;;;68.67;31.33;;;2.60;99.90;;;;;;5079005;28;20314;-76
2021/12/11 11:09:40;;;;;;;56.27;28.90;;;2.70;99.90;;;;;;5073348;28;20206;-76
2021/12/11 11:12:11;;;;;;;63.90;30.37;;;2.80;99.90;;;;;;5079900;28;20329;-76
2021/12/11 11:14:39;;;;;;;61.23;28.47;;;2.80;99.90;;;;;;5088530;28;20580;-77
2021/12/11 11:17:14;;;;;;;63.33;30.50;;;2.90;99.90;;;;;;5085691;28;20767;-76
2021/12/11 11:19:42;;;;;;;61.17;28.60;;;2.90;99.90;;;;;;5089456;28;20610;-77
2021/12/11 11:22:14;;;;;;;69.37;29.90;;;3.00;99.90;;;;;;5092569;28;20214;-76
2021/12/11 11:24:45;;;;;;;63.40;29.47;;;3.10;99.90;;;;;;5080724;28;20262;-76
2021/12/11 11:27:12;;;;;;;78.47;29.90;;;3.20;99.90;;;;;;5070684;28;20215;-76
2021/12/11 11:29:41;;;;;;;66.77;29.43;;;3.20;99.90;;;;;;5091970;28;20239;-78
2021/12/11 11:32:13;;;;;;;70.17;30.47;;;3.30;99.90;;;;;;5086119;28;20290;-76
2021/12/11 11:34:41;;;;;;;66.53;30.70;;;3.40;99.90;;;;;;5071062;28;20291;-77
2021/12/11 11:37:13;;;;;;;68.10;29.13;;;3.50;99.90;;;;;;5091645;28;20287;-80
2021/12/11 11:39:40;;;;;;;67.00;30.00;;;3.50;99.90;;;;;;5091936;28;20293;-77
2021/12/11 11:42:14;;;;;;;77.83;31.13;;;3.60;99.90;;;;;;5092582;28;20232;-77
2021/12/11 11:44:45;;;;;;;73.13;29.77;;;3.60;99.90;;;;;;5083471;28;20215;-76
2021/12/11 11:47:14;;;;;;;72.40;29.40;;;3.70;99.90;;;;;;5092100;28;20254;-76
2021/12/11 11:49:41;;;;;;;82.77;31.10;;;3.80;99.90;;;;;;5091921;28;20200;-77
2021/12/11 11:52:15;;;;;;;83.23;30.87;;;3.80;99.90;;;;;;5083021;28;20292;-76
2021/12/11 11:54:44;;;;;;;80.10;31.47;;;3.80;99.90;;;;;;5081394;28;20631;-78
2021/12/11 11:57:15;;;;;;;96.10;30.20;;;3.80;99.90;;;;;;5071934;28;20250;-76
2021/12/11 11:59:42;;;;;;;64.90;29.60;;;3.90;99.90;;;;;;5089350;28;20280;-77
2021/12/11 12:02:16;;;;;;;77.87;30.40;;;3.90;99.90;;;;;;5090170;28;20242;-76
2021/12/11 12:04:45;;;;;;;68.13;27.63;;;4.00;99.90;;;;;;5073636;28;20234;-77
2021/12/11 12:07:13;;;;;;;83.30;29.60;;;4.00;99.90;;;;;;5091561;28;20308;-79
2021/12/11 12:09:43;;;;;;;88.20;28.50;;;4.00;99.90;;;;;;5078598;28;20255;-77
2021/12/11 12:12:13;;;;;;;77.00;29.77;;;4.10;99.90;;;;;;5094107;28;20211;-76
2021/12/11 12:14:42;;;;;;;98.83;30.90;;;4.10;99.90;;;;;;5091120;28;20240;-78
2021/12/11 12:17:13;;;;;;;78.53;27.17;;;4.10;99.90;;;;;;5090789;28;20235;-76
2021/12/11 12:19:41;;;;;;;77.47;28.33;;;4.10;99.90;;;;;;5093838;28;20286;-75
2021/12/11 12:22:11;;;;;;;82.37;27.83;;;4.10;99.90;;;;;;5091252;28;20223;-75
2021/12/11 12:24:39;;;;;;;69.83;27.53;;;4.20;99.90;;;;;;5090340;28;20291;-78
2021/12/11 12:27:19;;;;;;;69.30;25.97;;;4.20;99.90;;;;;;5090525;28;20295;-75
2021/12/11 12:29:47;;;;;;;61.97;19.73;;;4.10;99.90;;;;;;5072837;28;20211;-77
2021/12/11 12:32:22;;;;;;;46.77;17.97;;;4.00;99.90;;;;;;5075235;28;20701;-76
2021/12/11 12:34:52;;;;;;;43.10;16.77;;;3.90;99.90;;;;;;5093139;28;20212;-76
2021/12/11 12:37:19;;;;;;;38.90;15.73;;;3.90;99.90;;;;;;5095269;28;20199;-77
2021/12/11 12:39:50;;;;;;;51.03;16.60;;;3.90;99.90;;;;;;5099503;28;20184;-77
2021/12/11 12:42:27;;;;;;;40.43;15.77;;;3.90;99.90;;;;;;5101071;28;20233;-78
2021/12/11 12:45:08;;;;;;;35.93;14.77;;;3.90;99.90;;;;;;5083417;28;20226;-76
2021/12/11 12:47:40;;;;;;;37.23;16.20;;;3.90;99.90;;;;;;5101527;28;20224;-76
2021/12/11 12:50:22;;;;;;;35.43;16.23;;;3.80;99.90;;;;;;5103172;28;20203;-78
2021/12/11 12:52:49;;;;;;;38.67;16.57;;;3.80;99.90;;;;;;5101448;28;20194;-77
2021/12/11 12:55:36;;;;;;;33.50;16.00;;;3.80;99.90;;;;;;5093825;28;20238;-76
2021/12/11 12:58:14;;;;;;;36.73;17.07;;;3.80;99.90;;;;;;5093538;28;20681;-76
2021/12/11 13:00:51;;;;;;;39.17;18.17;;;3.90;99.90;;;;;;5072209;28;20693;-77
2021/12/11 13:03:25;;;;;;;38.43;17.73;;;3.90;99.90;;;;;;5085562;28;20616;-78
2021/12/11 13:06:03;;;;;;;41.73;19.23;;;3.90;99.90;;;;;;5088777;28;20204;-78